sensor_id;sensor_type;location;lat;lon;timestamp;P1;durP1;ratioP1;P2;durP2;ratioP2
7703;SDS011;3894;49.700;10.770;2023-09-19T00:03:58;4.05;;;1.10;;
7703;SDS011;3894;49.700;10.770;2023-09-19T00:06:24;4.57;;;0.80;;
7703;SDS011;3894;49.700;10.770;2023-09-19T00:08:54;6.72;;;0.98;;
7703;SDS011;3894;49.700;10.770;2023-09-19T00:11:19;2.97;;;0.82;;
7703;SDS011;3894;49.700;10.770;2023-09-19T00:13:47;4.25;;;0.63;;
7703;SDS011;3894;49.700;10.770;2023-09-19T00:16:14;4.25;;;0.75;;
7703;SDS011;3894;49.700;10.770;2023-09-19T00:18:40;3.55;;;0.80;;
7703;SDS011;3894;49.700;10.770;2023-09-19T00:21:06;3.13;;;0.60;;
7703;SDS011;3894;49.700;10.770;2023-09-19T00:23:32;4.30;;;0.68;;
7703;SDS011;3894;49.700;10.770;2023-09-19T00:25:59;4.28;;;0.57;;
7703;SDS011;3894;49.700;10.770;2023-09-19T00:28:25;5.28;;;0.73;;
7703;SDS011;3894;49.700;10.770;2023-09-19T00:30:51;4.22;;;0.65;;
7703;SDS011;3894;49.700;10.770;2023-09-19T00:33:19;3.20;;;0.52;;
7703;SDS011;3894;49.700;10.770;2023-09-19T00:35:48;3.88;;;0.60;;
7703;SDS011;3894;49.700;10.770;2023-09-19T00:38:18;4.57;;;0.68;;
7703;SDS011;3894;49.700;10.770;2023-09-19T00:40:47;4.40;;;0.73;;
7703;SDS011;3894;49.700;10.770;2023-09-19T00:43:14;4.47;;;0.57;;
7703;SDS011;3894;49.700;10.770;2023-09-19T00:45:44;2.53;;;0.50;;
7703;SDS011;3894;49.700;10.770;2023-09-19T00:48:10;3.47;;;0.50;;
7703;SDS011;3894;49.700;10.770;2023-09-19T00:50:37;5.35;;;0.50;;
7703;SDS011;3894;49.700;10.770;2023-09-19T00:53:07;3.50;;;0.40;;
7703;SDS011;3894;49.700;10.770;2023-09-19T00:55:38;3.08;;;0.40;;
7703;SDS011;3894;49.700;10.770;2023-09-19T00:58:04;4.47;;;0.45;;
7703;SDS011;3894;49.700;10.770;2023-09-19T01:00:33;3.10;;;0.40;;
7703;SDS011;3894;49.700;10.770;2023-09-19T01:02:59;3.10;;;0.50;;
7703;SDS011;3894;49.700;10.770;2023-09-19T01:05:28;3.10;;;0.52;;
7703;SDS011;3894;49.700;10.770;2023-09-19T01:07:55;5.07;;;0.93;;
7703;SDS011;3894;49.700;10.770;2023-09-19T01:10:20;4.95;;;0.52;;
7703;SDS011;3894;49.700;10.770;2023-09-19T01:21:51;4.57;;;0.65;;
7703;SDS011;3894;49.700;10.770;2023-09-19T01:28:20;3.35;;;0.60;;
7703;SDS011;3894;49.700;10.770;2023-09-19T01:30:47;3.25;;;0.70;;
7703;SDS011;3894;49.700;10.770;2023-09-19T01:33:23;4.05;;;0.50;;
7703;SDS011;3894;49.700;10.770;2023-09-19T01:35:48;3.53;;;0.45;;
7703;SDS011;3894;49.700;10.770;2023-09-19T01:38:15;3.83;;;0.60;;
7703;SDS011;3894;49.700;10.770;2023-09-19T01:40:46;3.72;;;0.50;;
7703;SDS011;3894;49.700;10.770;2023-09-19T01:43:37;2.75;;;0.40;;
7703;SDS011;3894;49.700;10.770;2023-09-19T01:46:29;4.32;;;0.55;;
7703;SDS011;3894;49.700;10.770;2023-09-19T01:52:05;6.45;;;0.50;;
7703;SDS011;3894;49.700;10.770;2023-09-19T01:54:51;4.97;;;0.60;;
7703;SDS011;3894;49.700;10.770;2023-09-19T01:57:27;3.75;;;0.45;;
7703;SDS011;3894;49.700;10.770;2023-09-19T02:00:00;3.25;;;0.65;;
7703;SDS011;3894;49.700;10.770;2023-09-19T02:02:34;3.58;;;0.50;;
7703;SDS011;3894;49.700;10.770;2023-09-19T02:05:05;3.08;;;0.50;;
7703;SDS011;3894;49.700;10.770;2023-09-19T02:07:31;4.13;;;0.45;;
7703;SDS011;3894;49.700;10.770;2023-09-19T02:10:00;2.95;;;0.50;;
7703;SDS011;3894;49.700;10.770;2023-09-19T02:12:31;6.05;;;1.13;;
7703;SDS011;3894;49.700;10.770;2023-09-19T02:15:03;2.47;;;0.40;;
7703;SDS011;3894;49.700;10.770;2023-09-19T02:17:32;5.45;;;0.57;;
7703;SDS011;3894;49.700;10.770;2023-09-19T02:19:57;4.93;;;0.60;;
7703;SDS011;3894;49.700;10.770;2023-09-19T02:22:25;3.63;;;0.80;;
7703;SDS011;3894;49.700;10.770;2023-09-19T02:24:54;4.70;;;0.60;;
7703;SDS011;3894;49.700;10.770;2023-09-19T02:27:23;2.63;;;0.35;;
7703;SDS011;3894;49.700;10.770;2023-09-19T02:29:49;4.47;;;0.57;;
7703;SDS011;3894;49.700;10.770;2023-09-19T02:32:14;2.90;;;0.40;;
7703;SDS011;3894;49.700;10.770;2023-09-19T02:34:42;2.58;;;0.50;;
7703;SDS011;3894;49.700;10.770;2023-09-19T02:37:10;4.55;;;0.50;;
7703;SDS011;3894;49.700;10.770;2023-09-19T02:39:41;3.20;;;0.60;;
7703;SDS011;3894;49.700;10.770;2023-09-19T02:42:07;3.03;;;0.50;;
7703;SDS011;3894;49.700;10.770;2023-09-19T02:44:33;2.53;;;0.30;;
7703;SDS011;3894;49.700;10.770;2023-09-19T02:47:03;3.20;;;0.45;;
7703;SDS011;3894;49.700;10.770;2023-09-19T02:49:31;4.00;;;0.40;;
7703;SDS011;3894;49.700;10.770;2023-09-19T02:51:57;2.30;;;0.30;;
7703;SDS011;3894;49.700;10.770;2023-09-19T02:54:24;3.70;;;0.52;;
7703;SDS011;3894;49.700;10.770;2023-09-19T02:56:52;3.42;;;0.30;;
7703;SDS011;3894;49.700;10.770;2023-09-19T02:59:21;3.85;;;0.40;;
7703;SDS011;3894;49.700;10.770;2023-09-19T03:01:47;3.33;;;0.40;;
7703;SDS011;3894;49.700;10.770;2023-09-19T03:04:19;2.40;;;0.40;;
7703;SDS011;3894;49.700;10.770;2023-09-19T03:06:45;5.18;;;0.55;;
7703;SDS011;3894;49.700;10.770;2023-09-19T03:09:15;2.60;;;0.68;;
7703;SDS011;3894;49.700;10.770;2023-09-19T03:11:42;3.00;;;0.50;;
7703;SDS011;3894;49.700;10.770;2023-09-19T03:14:09;2.22;;;0.30;;
7703;SDS011;3894;49.700;10.770;2023-09-19T03:16:36;3.22;;;0.47;;
7703;SDS011;3894;49.700;10.770;2023-09-19T03:19:09;4.28;;;0.50;;
7703;SDS011;3894;49.700;10.770;2023-09-19T03:21:40;3.38;;;0.57;;
7703;SDS011;3894;49.700;10.770;2023-09-19T03:24:06;2.17;;;0.30;;
7703;SDS011;3894;49.700;10.770;2023-09-19T03:26:34;2.90;;;0.93;;
7703;SDS011;3894;49.700;10.770;2023-09-19T03:29:03;3.13;;;0.35;;
7703;SDS011;3894;49.700;10.770;2023-09-19T03:31:38;3.05;;;0.40;;
7703;SDS011;3894;49.700;10.770;2023-09-19T03:34:04;2.78;;;0.32;;
7703;SDS011;3894;49.700;10.770;2023-09-19T03:36:30;4.30;;;0.47;;
7703;SDS011;3894;49.700;10.770;2023-09-19T03:38:56;4.85;;;0.40;;
7703;SDS011;3894;49.700;10.770;2023-09-19T03:41:21;3.40;;;0.43;;
7703;SDS011;3894;49.700;10.770;2023-09-19T03:43:47;3.50;;;0.43;;
7703;SDS011;3894;49.700;10.770;2023-09-19T03:46:13;3.00;;;0.40;;
7703;SDS011;3894;49.700;10.770;2023-09-19T03:48:40;4.05;;;0.50;;
7703;SDS011;3894;49.700;10.770;2023-09-19T03:51:05;3.50;;;0.40;;
7703;SDS011;3894;49.700;10.770;2023-09-19T03:53:31;4.45;;;0.93;;
7703;SDS011;3894;49.700;10.770;2023-09-19T03:55:59;3.60;;;0.60;;
7703;SDS011;3894;49.700;10.770;2023-09-19T03:58:26;4.90;;;0.95;;
7703;SDS011;3894;49.700;10.770;2023-09-19T04:01:04;3.60;;;0.65;;
7703;SDS011;3894;49.700;10.770;2023-09-19T04:03:35;4.43;;;1.05;;
7703;SDS011;3894;49.700;10.770;2023-09-19T04:06:14;3.78;;;0.80;;
7703;SDS011;3894;49.700;10.770;2023-09-19T04:08:41;4.03;;;0.63;;
7703;SDS011;3894;49.700;10.770;2023-09-19T04:11:09;5.68;;;1.40;;
7703;SDS011;3894;49.700;10.770;2023-09-19T04:13:35;4.20;;;0.93;;
7703;SDS011;3894;49.700;10.770;2023-09-19T04:16:01;3.30;;;0.73;;
7703;SDS011;3894;49.700;10.770;2023-09-19T04:18:31;3.92;;;1.02;;
7703;SDS011;3894;49.700;10.770;2023-09-19T04:20:58;5.38;;;0.95;;
7703;SDS011;3894;49.700;10.770;2023-09-19T04:23:27;3.42;;;0.90;;
7703;SDS011;3894;49.700;10.770;2023-09-19T04:25:56;4.10;;;0.88;;
7703;SDS011;3894;49.700;10.770;2023-09-19T04:28:25;3.90;;;0.80;;
7703;SDS011;3894;49.700;10.770;2023-09-19T04:30:52;5.35;;;0.90;;
7703;SDS011;3894;49.700;10.770;2023-09-19T04:33:18;6.03;;;1.15;;
7703;SDS011;3894;49.700;10.770;2023-09-19T04:35:44;4.80;;;1.15;;
7703;SDS011;3894;49.700;10.770;2023-09-19T04:38:10;4.35;;;0.70;;
7703;SDS011;3894;49.700;10.770;2023-09-19T04:40:36;3.92;;;1.02;;
7703;SDS011;3894;49.700;10.770;2023-09-19T04:43:04;4.57;;;1.33;;
7703;SDS011;3894;49.700;10.770;2023-09-19T04:45:31;4.22;;;1.23;;
7703;SDS011;3894;49.700;10.770;2023-09-19T04:47:56;4.57;;;0.90;;
7703;SDS011;3894;49.700;10.770;2023-09-19T04:50:22;4.93;;;1.25;;
7703;SDS011;3894;49.700;10.770;2023-09-19T04:52:50;4.30;;;1.35;;
7703;SDS011;3894;49.700;10.770;2023-09-19T04:55:16;5.25;;;1.35;;
7703;SDS011;3894;49.700;10.770;2023-09-19T05:00:11;5.53;;;1.50;;
7703;SDS011;3894;49.700;10.770;2023-09-19T05:02:39;7.13;;;1.48;;
7703;SDS011;3894;49.700;10.770;2023-09-19T05:05:08;5.03;;;1.02;;
7703;SDS011;3894;49.700;10.770;2023-09-19T05:07:35;3.95;;;1.20;;
7703;SDS011;3894;49.700;10.770;2023-09-19T05:10:01;4.68;;;1.23;;
7703;SDS011;3894;49.700;10.770;2023-09-19T05:12:30;4.38;;;1.23;;
7703;SDS011;3894;49.700;10.770;2023-09-19T05:14:57;5.25;;;1.42;;
7703;SDS011;3894;49.700;10.770;2023-09-19T05:17:23;4.32;;;1.30;;
7703;SDS011;3894;49.700;10.770;2023-09-19T05:19:51;4.63;;;1.52;;
7703;SDS011;3894;49.700;10.770;2023-09-19T05:22:17;5.38;;;1.73;;
7703;SDS011;3894;49.700;10.770;2023-09-19T05:24:43;4.25;;;1.10;;
7703;SDS011;3894;49.700;10.770;2023-09-19T05:27:13;6.75;;;1.83;;
7703;SDS011;3894;49.700;10.770;2023-09-19T05:29:42;11.25;;;4.15;;
7703;SDS011;3894;49.700;10.770;2023-09-19T05:32:11;6.90;;;2.70;;
7703;SDS011;3894;49.700;10.770;2023-09-19T05:34:37;4.80;;;1.50;;
7703;SDS011;3894;49.700;10.770;2023-09-19T05:37:03;4.82;;;1.17;;
7703;SDS011;3894;49.700;10.770;2023-09-19T05:39:33;4.97;;;1.02;;
7703;SDS011;3894;49.700;10.770;2023-09-19T05:41:59;4.53;;;0.98;;
7703;SDS011;3894;49.700;10.770;2023-09-19T05:44:25;3.00;;;0.82;;
7703;SDS011;3894;49.700;10.770;2023-09-19T05:46:51;3.70;;;1.13;;
7703;SDS011;3894;49.700;10.770;2023-09-19T05:49:18;4.60;;;1.38;;
7703;SDS011;3894;49.700;10.770;2023-09-19T05:51:46;3.35;;;0.70;;
7703;SDS011;3894;49.700;10.770;2023-09-19T05:54:12;5.80;;;0.93;;
7703;SDS011;3894;49.700;10.770;2023-09-19T05:56:38;4.47;;;0.90;;
7703;SDS011;3894;49.700;10.770;2023-09-19T05:59:03;3.33;;;0.75;;
7703;SDS011;3894;49.700;10.770;2023-09-19T06:01:33;4.75;;;1.00;;
7703;SDS011;3894;49.700;10.770;2023-09-19T06:03:59;3.80;;;0.80;;
7703;SDS011;3894;49.700;10.770;2023-09-19T06:06:27;3.60;;;0.95;;
7703;SDS011;3894;49.700;10.770;2023-09-19T06:08:55;4.85;;;0.90;;
7703;SDS011;3894;49.700;10.770;2023-09-19T06:11:22;5.50;;;1.60;;
7703;SDS011;3894;49.700;10.770;2023-09-19T06:13:51;4.25;;;1.35;;
7703;SDS011;3894;49.700;10.770;2023-09-19T06:16:18;4.50;;;1.00;;
7703;SDS011;3894;49.700;10.770;2023-09-19T06:18:44;3.80;;;0.90;;
7703;SDS011;3894;49.700;10.770;2023-09-19T06:21:10;5.97;;;1.40;;
7703;SDS011;3894;49.700;10.770;2023-09-19T06:23:36;3.45;;;1.15;;
7703;SDS011;3894;49.700;10.770;2023-09-19T06:26:02;4.13;;;0.90;;
7703;SDS011;3894;49.700;10.770;2023-09-19T06:28:31;4.72;;;1.05;;
7703;SDS011;3894;49.700;10.770;2023-09-19T06:30:58;3.67;;;0.98;;
7703;SDS011;3894;49.700;10.770;2023-09-19T06:33:24;4.53;;;1.10;;
7703;SDS011;3894;49.700;10.770;2023-09-19T06:35:50;4.25;;;1.17;;
7703;SDS011;3894;49.700;10.770;2023-09-19T06:38:17;4.28;;;0.95;;
7703;SDS011;3894;49.700;10.770;2023-09-19T06:40:44;5.82;;;1.30;;
7703;SDS011;3894;49.700;10.770;2023-09-19T06:43:10;3.45;;;1.00;;
7703;SDS011;3894;49.700;10.770;2023-09-19T06:45:36;3.47;;;1.15;;
7703;SDS011;3894;49.700;10.770;2023-09-19T06:48:02;4.63;;;1.10;;
7703;SDS011;3894;49.700;10.770;2023-09-19T06:50:28;4.53;;;0.98;;
7703;SDS011;3894;49.700;10.770;2023-09-19T06:52:58;4.10;;;1.23;;
7703;SDS011;3894;49.700;10.770;2023-09-19T06:55:24;4.40;;;1.10;;
7703;SDS011;3894;49.700;10.770;2023-09-19T06:57:53;5.55;;;1.70;;
7703;SDS011;3894;49.700;10.770;2023-09-19T07:00:22;3.80;;;1.10;;
7703;SDS011;3894;49.700;10.770;2023-09-19T07:03:01;4.75;;;0.93;;
7703;SDS011;3894;49.700;10.770;2023-09-19T07:05:35;4.00;;;0.88;;
7703;SDS011;3894;49.700;10.770;2023-09-19T07:08:09;3.97;;;0.95;;
7703;SDS011;3894;49.700;10.770;2023-09-19T07:10:37;3.85;;;0.95;;
7703;SDS011;3894;49.700;10.770;2023-09-19T07:13:13;4.35;;;0.73;;
7703;SDS011;3894;49.700;10.770;2023-09-19T07:15:42;3.38;;;0.82;;
7703;SDS011;3894;49.700;10.770;2023-09-19T07:18:11;3.38;;;1.00;;
7703;SDS011;3894;49.700;10.770;2023-09-19T07:20:39;5.00;;;0.82;;
7703;SDS011;3894;49.700;10.770;2023-09-19T07:23:10;3.55;;;0.75;;
7703;SDS011;3894;49.700;10.770;2023-09-19T07:25:38;4.20;;;1.50;;
7703;SDS011;3894;49.700;10.770;2023-09-19T07:28:04;5.50;;;0.80;;
7703;SDS011;3894;49.700;10.770;2023-09-19T07:30:30;4.07;;;0.85;;
7703;SDS011;3894;49.700;10.770;2023-09-19T07:32:56;5.13;;;0.68;;
7703;SDS011;3894;49.700;10.770;2023-09-19T07:35:21;4.93;;;0.90;;
7703;SDS011;3894;49.700;10.770;2023-09-19T07:37:47;3.83;;;1.30;;
7703;SDS011;3894;49.700;10.770;2023-09-19T07:40:15;4.72;;;1.02;;
7703;SDS011;3894;49.700;10.770;2023-09-19T07:42:41;3.53;;;0.88;;
7703;SDS011;3894;49.700;10.770;2023-09-19T07:45:08;4.22;;;0.88;;
7703;SDS011;3894;49.700;10.770;2023-09-19T07:47:34;5.40;;;0.70;;
7703;SDS011;3894;49.700;10.770;2023-09-19T07:50:01;4.70;;;1.25;;
7703;SDS011;3894;49.700;10.770;2023-09-19T07:52:27;5.38;;;1.23;;
7703;SDS011;3894;49.700;10.770;2023-09-19T07:54:53;4.25;;;1.20;;
7703;SDS011;3894;49.700;10.770;2023-09-19T07:57:19;5.75;;;0.80;;
7703;SDS011;3894;49.700;10.770;2023-09-19T07:59:45;4.72;;;1.05;;
7703;SDS011;3894;49.700;10.770;2023-09-19T08:02:11;4.68;;;1.13;;
7703;SDS011;3894;49.700;10.770;2023-09-19T08:04:44;5.40;;;0.80;;
7703;SDS011;3894;49.700;10.770;2023-09-19T08:07:13;3.97;;;0.73;;
7703;SDS011;3894;49.700;10.770;2023-09-19T08:09:38;5.75;;;1.08;;
7703;SDS011;3894;49.700;10.770;2023-09-19T08:12:05;3.65;;;0.70;;
7703;SDS011;3894;49.700;10.770;2023-09-19T08:14:33;3.53;;;0.75;;
7703;SDS011;3894;49.700;10.770;2023-09-19T08:16:58;6.32;;;0.68;;
7703;SDS011;3894;49.700;10.770;2023-09-19T08:19:25;3.22;;;0.65;;
7703;SDS011;3894;49.700;10.770;2023-09-19T08:21:57;2.90;;;0.60;;
7703;SDS011;3894;49.700;10.770;2023-09-19T08:24:24;2.95;;;0.57;;
7703;SDS011;3894;49.700;10.770;2023-09-19T08:26:52;5.90;;;0.30;;
7703;SDS011;3894;49.700;10.770;2023-09-19T08:29:19;4.25;;;0.50;;
7703;SDS011;3894;49.700;10.770;2023-09-19T08:31:45;3.15;;;0.55;;
7703;SDS011;3894;49.700;10.770;2023-09-19T08:34:12;4.15;;;0.70;;
7703;SDS011;3894;49.700;10.770;2023-09-19T08:36:38;3.10;;;0.40;;
7703;SDS011;3894;49.700;10.770;2023-09-19T08:39:04;3.30;;;0.52;;
7703;SDS011;3894;49.700;10.770;2023-09-19T08:41:29;2.58;;;0.32;;
7703;SDS011;3894;49.700;10.770;2023-09-19T08:43:58;2.60;;;0.47;;
7703;SDS011;3894;49.700;10.770;2023-09-19T08:46:26;4.20;;;0.80;;
7703;SDS011;3894;49.700;10.770;2023-09-19T08:49:08;3.17;;;0.55;;
7703;SDS011;3894;49.700;10.770;2023-09-19T08:51:42;6.60;;;0.80;;
7703;SDS011;3894;49.700;10.770;2023-09-19T08:54:12;3.00;;;0.47;;
7703;SDS011;3894;49.700;10.770;2023-09-19T08:56:51;3.75;;;0.50;;
7703;SDS011;3894;49.700;10.770;2023-09-19T08:59:21;4.28;;;0.70;;
7703;SDS011;3894;49.700;10.770;2023-09-19T09:01:51;3.42;;;0.50;;
7703;SDS011;3894;49.700;10.770;2023-09-19T09:06:45;2.95;;;0.60;;
7703;SDS011;3894;49.700;10.770;2023-09-19T09:09:14;2.75;;;0.43;;
7703;SDS011;3894;49.700;10.770;2023-09-19T09:11:40;4.20;;;0.80;;
7703;SDS011;3894;49.700;10.770;2023-09-19T09:14:06;4.80;;;0.73;;
7703;SDS011;3894;49.700;10.770;2023-09-19T09:16:32;4.85;;;0.35;;
7703;SDS011;3894;49.700;10.770;2023-09-19T09:18:59;4.28;;;0.65;;
7703;SDS011;3894;49.700;10.770;2023-09-19T09:21:25;2.97;;;0.50;;
7703;SDS011;3894;49.700;10.770;2023-09-19T09:23:51;6.03;;;0.60;;
7703;SDS011;3894;49.700;10.770;2023-09-19T09:26:33;3.00;;;0.43;;
7703;SDS011;3894;49.700;10.770;2023-09-19T09:29:03;4.15;;;0.82;;
7703;SDS011;3894;49.700;10.770;2023-09-19T09:31:29;3.58;;;0.63;;
7703;SDS011;3894;49.700;10.770;2023-09-19T09:33:55;4.40;;;0.52;;
7703;SDS011;3894;49.700;10.770;2023-09-19T09:36:35;3.05;;;0.40;;
7703;SDS011;3894;49.700;10.770;2023-09-19T09:39:06;4.55;;;0.90;;
7703;SDS011;3894;49.700;10.770;2023-09-19T09:41:41;3.28;;;0.40;;
7703;SDS011;3894;49.700;10.770;2023-09-19T09:44:18;3.47;;;0.40;;
7703;SDS011;3894;49.700;10.770;2023-09-19T09:46:47;3.25;;;0.40;;
7703;SDS011;3894;49.700;10.770;2023-09-19T09:49:23;2.92;;;0.40;;
7703;SDS011;3894;49.700;10.770;2023-09-19T09:52:00;3.42;;;0.52;;
7703;SDS011;3894;49.700;10.770;2023-09-19T09:54:41;3.17;;;0.50;;
7703;SDS011;3894;49.700;10.770;2023-09-19T09:57:30;4.70;;;0.50;;
7703;SDS011;3894;49.700;10.770;2023-09-19T09:59:57;4.30;;;0.47;;
7703;SDS011;3894;49.700;10.770;2023-09-19T10:02:28;3.75;;;0.40;;
7703;SDS011;3894;49.700;10.770;2023-09-19T10:07:32;2.88;;;0.40;;
7703;SDS011;3894;49.700;10.770;2023-09-19T10:10:01;3.13;;;0.32;;
7703;SDS011;3894;49.700;10.770;2023-09-19T10:12:46;3.03;;;0.32;;
7703;SDS011;3894;49.700;10.770;2023-09-19T10:15:18;3.53;;;0.30;;
7703;SDS011;3894;49.700;10.770;2023-09-19T10:17:49;6.93;;;0.93;;
7703;SDS011;3894;49.700;10.770;2023-09-19T10:20:19;3.53;;;0.40;;
7703;SDS011;3894;49.700;10.770;2023-09-19T10:22:57;3.97;;;0.55;;
7703;SDS011;3894;49.700;10.770;2023-09-19T10:25:27;3.60;;;0.40;;
7703;SDS011;3894;49.700;10.770;2023-09-19T10:27:53;4.03;;;0.60;;
7703;SDS011;3894;49.700;10.770;2023-09-19T10:30:20;4.35;;;0.85;;
7703;SDS011;3894;49.700;10.770;2023-09-19T10:32:50;3.97;;;0.52;;
7703;SDS011;3894;49.700;10.770;2023-09-19T10:35:23;3.50;;;0.45;;
7703;SDS011;3894;49.700;10.770;2023-09-19T10:37:50;3.15;;;0.50;;
7703;SDS011;3894;49.700;10.770;2023-09-19T10:40:19;3.03;;;0.50;;
7703;SDS011;3894;49.700;10.770;2023-09-19T10:42:47;5.53;;;0.63;;
7703;SDS011;3894;49.700;10.770;2023-09-19T10:45:15;2.78;;;0.30;;
7703;SDS011;3894;49.700;10.770;2023-09-19T10:47:45;1.88;;;0.25;;
7703;SDS011;3894;49.700;10.770;2023-09-19T10:50:19;2.45;;;0.30;;
7703;SDS011;3894;49.700;10.770;2023-09-19T10:52:46;2.45;;;0.30;;
7703;SDS011;3894;49.700;10.770;2023-09-19T10:55:18;2.53;;;0.30;;
7703;SDS011;3894;49.700;10.770;2023-09-19T10:57:48;2.40;;;0.45;;
7703;SDS011;3894;49.700;10.770;2023-09-19T11:00:14;2.95;;;0.30;;
7703;SDS011;3894;49.700;10.770;2023-09-19T11:06:01;3.75;;;0.38;;
7703;SDS011;3894;49.700;10.770;2023-09-19T11:08:54;2.42;;;0.35;;
7703;SDS011;3894;49.700;10.770;2023-09-19T11:11:40;2.92;;;0.40;;
7703;SDS011;3894;49.700;10.770;2023-09-19T11:30:33;2.63;;;0.43;;
7703;SDS011;3894;49.700;10.770;2023-09-19T11:46:51;4.70;;;0.98;;
7703;SDS011;3894;49.700;10.770;2023-09-19T11:49:18;4.45;;;0.52;;
7703;SDS011;3894;49.700;10.770;2023-09-19T11:51:52;2.88;;;0.50;;
7703;SDS011;3894;49.700;10.770;2023-09-19T11:54:19;2.85;;;0.40;;
7703;SDS011;3894;49.700;10.770;2023-09-19T11:56:47;2.58;;;0.30;;
7703;SDS011;3894;49.700;10.770;2023-09-19T11:59:25;3.38;;;0.32;;
7703;SDS011;3894;49.700;10.770;2023-09-19T12:02:04;3.20;;;0.68;;
7703;SDS011;3894;49.700;10.770;2023-09-19T12:04:37;2.70;;;0.30;;
7703;SDS011;3894;49.700;10.770;2023-09-19T12:07:07;3.95;;;0.77;;
7703;SDS011;3894;49.700;10.770;2023-09-19T12:09:41;2.28;;;0.30;;
7703;SDS011;3894;49.700;10.770;2023-09-19T12:12:25;5.80;;;0.50;;
7703;SDS011;3894;49.700;10.770;2023-09-19T12:15:00;2.22;;;0.30;;
7703;SDS011;3894;49.700;10.770;2023-09-19T12:17:38;4.07;;;0.47;;
7703;SDS011;3894;49.700;10.770;2023-09-19T12:20:06;3.00;;;0.30;;
7703;SDS011;3894;49.700;10.770;2023-09-19T12:25:08;2.70;;;0.30;;
7703;SDS011;3894;49.700;10.770;2023-09-19T12:27:45;2.10;;;0.20;;
7703;SDS011;3894;49.700;10.770;2023-09-19T12:30:12;2.63;;;0.40;;
7703;SDS011;3894;49.700;10.770;2023-09-19T12:32:47;4.25;;;0.30;;
7703;SDS011;3894;49.700;10.770;2023-09-19T12:35:27;4.88;;;0.40;;
7703;SDS011;3894;49.700;10.770;2023-09-19T12:37:55;4.25;;;0.63;;
7703;SDS011;3894;49.700;10.770;2023-09-19T12:40:22;3.47;;;0.50;;
7703;SDS011;3894;49.700;10.770;2023-09-19T12:42:58;3.55;;;0.40;;
7703;SDS011;3894;49.700;10.770;2023-09-19T12:45:27;2.97;;;0.40;;
7703;SDS011;3894;49.700;10.770;2023-09-19T12:51:06;3.10;;;0.30;;
7703;SDS011;3894;49.700;10.770;2023-09-19T12:53:37;6.00;;;0.50;;
7703;SDS011;3894;49.700;10.770;2023-09-19T12:56:09;2.97;;;0.35;;
7703;SDS011;3894;49.700;10.770;2023-09-19T12:58:53;3.95;;;0.50;;
7703;SDS011;3894;49.700;10.770;2023-09-19T13:01:20;3.10;;;0.50;;
7703;SDS011;3894;49.700;10.770;2023-09-19T13:06:51;3.38;;;0.35;;
7703;SDS011;3894;49.700;10.770;2023-09-19T13:09:18;3.40;;;0.32;;
7703;SDS011;3894;49.700;10.770;2023-09-19T13:17:05;4.43;;;0.63;;
7703;SDS011;3894;49.700;10.770;2023-09-19T13:25:26;3.10;;;0.52;;
7703;SDS011;3894;49.700;10.770;2023-09-19T13:28:20;5.55;;;0.65;;
7703;SDS011;3894;49.700;10.770;2023-09-19T13:31:11;4.28;;;0.60;;
7703;SDS011;3894;49.700;10.770;2023-09-19T13:33:56;2.75;;;0.30;;
7703;SDS011;3894;49.700;10.770;2023-09-19T13:36:27;2.90;;;0.30;;
7703;SDS011;3894;49.700;10.770;2023-09-19T13:39:09;2.58;;;0.30;;
7703;SDS011;3894;49.700;10.770;2023-09-19T13:41:50;2.90;;;0.35;;
7703;SDS011;3894;49.700;10.770;2023-09-19T13:44:25;3.17;;;0.40;;
7703;SDS011;3894;49.700;10.770;2023-09-19T13:46:57;4.40;;;0.50;;
7703;SDS011;3894;49.700;10.770;2023-09-19T13:50:03;4.28;;;0.60;;
7703;SDS011;3894;49.700;10.770;2023-09-19T13:52:39;3.78;;;0.70;;
7703;SDS011;3894;49.700;10.770;2023-09-19T13:55:10;5.60;;;0.82;;
7703;SDS011;3894;49.700;10.770;2023-09-19T13:57:51;2.90;;;0.38;;
7703;SDS011;3894;49.700;10.770;2023-09-19T14:00:47;4.35;;;0.50;;
7703;SDS011;3894;49.700;10.770;2023-09-19T14:06:15;2.42;;;0.38;;
7703;SDS011;3894;49.700;10.770;2023-09-19T14:08:44;3.80;;;0.60;;
7703;SDS011;3894;49.700;10.770;2023-09-19T14:11:14;5.97;;;0.52;;
7703;SDS011;3894;49.700;10.770;2023-09-19T14:13:46;2.95;;;0.63;;
7703;SDS011;3894;49.700;10.770;2023-09-19T14:16:15;3.17;;;0.35;;
7703;SDS011;3894;49.700;10.770;2023-09-19T14:18:49;3.22;;;0.43;;
7703;SDS011;3894;49.700;10.770;2023-09-19T14:21:26;2.50;;;0.30;;
7703;SDS011;3894;49.700;10.770;2023-09-19T14:23:54;2.65;;;0.30;;
7703;SDS011;3894;49.700;10.770;2023-09-19T14:26:20;4.03;;;0.40;;
7703;SDS011;3894;49.700;10.770;2023-09-19T14:28:48;2.05;;;0.28;;
7703;SDS011;3894;49.700;10.770;2023-09-19T14:31:13;3.72;;;0.43;;
7703;SDS011;3894;49.700;10.770;2023-09-19T14:33:39;2.35;;;0.35;;
7703;SDS011;3894;49.700;10.770;2023-09-19T14:36:06;5.53;;;1.00;;
7703;SDS011;3894;49.700;10.770;2023-09-19T14:38:35;3.72;;;0.30;;
7703;SDS011;3894;49.700;10.770;2023-09-19T14:41:02;6.00;;;0.50;;
7703;SDS011;3894;49.700;10.770;2023-09-19T14:43:29;2.97;;;0.30;;
7703;SDS011;3894;49.700;10.770;2023-09-19T14:46:07;3.67;;;0.60;;
7703;SDS011;3894;49.700;10.770;2023-09-19T14:48:34;3.78;;;0.32;;
7703;SDS011;3894;49.700;10.770;2023-09-19T14:51:03;4.13;;;0.40;;
7703;SDS011;3894;49.700;10.770;2023-09-19T14:53:30;3.00;;;0.30;;
7703;SDS011;3894;49.700;10.770;2023-09-19T14:55:56;3.50;;;0.60;;
7703;SDS011;3894;49.700;10.770;2023-09-19T14:58:21;3.78;;;0.50;;
7703;SDS011;3894;49.700;10.770;2023-09-19T15:00:47;5.10;;;0.40;;
7703;SDS011;3894;49.700;10.770;2023-09-19T15:03:13;4.18;;;0.75;;
7703;SDS011;3894;49.700;10.770;2023-09-19T15:05:39;3.80;;;0.50;;
7703;SDS011;3894;49.700;10.770;2023-09-19T15:08:04;2.83;;;0.40;;
7703;SDS011;3894;49.700;10.770;2023-09-19T15:10:30;3.55;;;0.40;;
7703;SDS011;3894;49.700;10.770;2023-09-19T15:12:56;3.97;;;0.50;;
7703;SDS011;3894;49.700;10.770;2023-09-19T15:15:22;6.90;;;0.80;;
7703;SDS011;3894;49.700;10.770;2023-09-19T15:17:48;3.95;;;0.85;;
7703;SDS011;3894;49.700;10.770;2023-09-19T15:20:13;3.63;;;0.30;;
7703;SDS011;3894;49.700;10.770;2023-09-19T15:22:39;3.67;;;0.50;;
7703;SDS011;3894;49.700;10.770;2023-09-19T15:25:05;4.93;;;0.55;;
7703;SDS011;3894;49.700;10.770;2023-09-19T15:27:31;4.45;;;0.50;;
7703;SDS011;3894;49.700;10.770;2023-09-19T15:29:58;3.42;;;0.50;;
7703;SDS011;3894;49.700;10.770;2023-09-19T15:32:25;3.53;;;0.70;;
7703;SDS011;3894;49.700;10.770;2023-09-19T15:34:51;4.88;;;0.43;;
7703;SDS011;3894;49.700;10.770;2023-09-19T15:37:16;4.20;;;1.13;;
7703;SDS011;3894;49.700;10.770;2023-09-19T15:39:42;4.10;;;0.63;;
7703;SDS011;3894;49.700;10.770;2023-09-19T15:42:09;3.30;;;0.40;;
7703;SDS011;3894;49.700;10.770;2023-09-19T15:44:36;3.80;;;0.47;;
7703;SDS011;3894;49.700;10.770;2023-09-19T15:47:02;2.38;;;0.32;;
7703;SDS011;3894;49.700;10.770;2023-09-19T15:49:28;3.30;;;0.30;;
7703;SDS011;3894;49.700;10.770;2023-09-19T15:51:54;2.53;;;0.30;;
7703;SDS011;3894;49.700;10.770;2023-09-19T15:54:20;4.63;;;0.70;;
7703;SDS011;3894;49.700;10.770;2023-09-19T15:56:45;4.35;;;0.60;;
7703;SDS011;3894;49.700;10.770;2023-09-19T15:59:12;4.25;;;0.50;;
7703;SDS011;3894;49.700;10.770;2023-09-19T16:01:38;2.42;;;0.35;;
7703;SDS011;3894;49.700;10.770;2023-09-19T16:04:05;3.25;;;0.30;;
7703;SDS011;3894;49.700;10.770;2023-09-19T16:06:33;3.95;;;0.40;;
7703;SDS011;3894;49.700;10.770;2023-09-19T16:08:59;3.47;;;0.70;;
7703;SDS011;3894;49.700;10.770;2023-09-19T16:11:28;3.83;;;0.50;;
7703;SDS011;3894;49.700;10.770;2023-09-19T16:13:55;3.17;;;0.60;;
7703;SDS011;3894;49.700;10.770;2023-09-19T16:16:21;3.42;;;0.60;;
7703;SDS011;3894;49.700;10.770;2023-09-19T16:18:49;3.40;;;0.52;;
7703;SDS011;3894;49.700;10.770;2023-09-19T16:21:18;2.90;;;0.30;;
7703;SDS011;3894;49.700;10.770;2023-09-19T16:23:47;5.20;;;0.40;;
7703;SDS011;3894;49.700;10.770;2023-09-19T16:26:19;2.63;;;0.40;;
7703;SDS011;3894;49.700;10.770;2023-09-19T16:28:45;2.55;;;0.43;;
7703;SDS011;3894;49.700;10.770;2023-09-19T16:31:12;3.25;;;0.40;;
7703;SDS011;3894;49.700;10.770;2023-09-19T16:33:39;2.75;;;0.30;;
7703;SDS011;3894;49.700;10.770;2023-09-19T16:38:35;4.00;;;0.50;;